createdAt,value
2018-10-09T00:01:49.515Z,1024
2018-10-09T00:06:48.406Z,1024.1
2018-10-09T00:11:48.624Z,1024.1
2018-10-09T00:16:48.916Z,1024
2018-10-09T00:21:48.365Z,1023.9
2018-10-09T00:26:49.019Z,1023.9
2018-10-09T00:31:48.425Z,1023.8
2018-10-09T00:36:48.730Z,1023.6
2018-10-09T00:41:48.903Z,1023.6
2018-10-09T00:46:48.288Z,1023.6
2018-10-09T00:51:48.668Z,1023.6
2018-10-09T00:56:48.308Z,1023.8
2018-10-09T01:01:48.606Z,1023.9
2018-10-09T01:06:49.104Z,1023.7
2018-10-09T01:11:48.278Z,1023.7
2018-10-09T01:16:48.604Z,1023.8
2018-10-09T01:21:49.048Z,1023.8
2018-10-09T01:26:48.677Z,1023.9
2018-10-09T01:31:48.973Z,1023.8
2018-10-09T01:36:48.418Z,1023.8
2018-10-09T01:41:48.595Z,1023.8
2018-10-09T01:46:48.926Z,1023.8
2018-10-09T01:51:48.361Z,1023.9
2018-10-09T01:56:48.989Z,1024
2018-10-09T02:01:48.350Z,1024.2
2018-10-09T02:06:48.765Z,1024.2
2018-10-09T02:11:48.963Z,1024.1
2018-10-09T02:16:48.309Z,1024
2018-10-09T02:21:48.719Z,1024.1
2018-10-09T02:26:48.357Z,1024
2018-10-09T02:31:48.671Z,1024
2018-10-09T02:36:49.098Z,1023.9
2018-10-09T02:41:48.390Z,1023.7
2018-10-09T02:46:48.667Z,1023.7
2018-10-09T02:51:49.065Z,1023.6
2018-10-09T02:56:48.685Z,1023.6
2018-10-09T03:01:48.946Z,1023.5
2018-10-09T03:06:48.523Z,1023.4
2018-10-09T03:11:48.719Z,1023.3
2018-10-09T03:16:49.042Z,1023.2
2018-10-09T03:21:48.477Z,1023.2
2018-10-09T03:26:48.156Z,1023.2
2018-10-09T03:31:48.493Z,1023.2
2018-10-09T03:36:48.900Z,1023.3
2018-10-09T03:41:48.088Z,1023.2
2018-10-09T03:46:48.477Z,1023.2
2018-10-09T03:51:48.827Z,1023.2
2018-10-09T03:56:48.474Z,1023.3
2018-10-09T04:01:48.787Z,1023.2
2018-10-09T04:06:48.213Z,1023.4
2018-10-09T04:11:48.430Z,1023.3
2018-10-09T04:16:48.778Z,1023.2
2018-10-09T04:21:48.235Z,1023.3
2018-10-09T04:26:48.822Z,1023.2
2018-10-09T04:31:48.180Z,1023.3
2018-10-09T04:36:48.599Z,1023.3
2018-10-09T04:41:48.827Z,1023.3
2018-10-09T04:46:48.155Z,1023.4
2018-10-09T04:51:49.177Z,1023.4
2018-10-09T04:56:48.164Z,1023.4
2018-10-09T05:01:48.892Z,1023.3
2018-10-09T05:06:49.015Z,1023.4
2018-10-09T05:11:48.875Z,1023.4
2018-10-09T05:16:48.256Z,1023.5
2018-10-09T05:21:48.646Z,1023.6
2018-10-09T05:26:48.269Z,1023.7
2018-10-09T05:31:48.561Z,1023.6
2018-10-09T05:36:49.023Z,1023.6
2018-10-09T05:41:48.209Z,1023.6
2018-10-09T05:46:48.555Z,1023.7
2018-10-09T05:51:48.990Z,1023.9
2018-10-09T05:56:48.624Z,1023.9
2018-10-09T06:01:48.916Z,1024
2018-10-09T06:06:48.401Z,1024
2018-10-09T06:11:48.584Z,1024
2018-10-09T06:16:48.899Z,1024.1
2018-10-09T06:21:48.332Z,1024.1
2018-10-09T06:26:48.926Z,1024.2
2018-10-09T06:31:48.308Z,1024.2
2018-10-09T06:36:48.724Z,1024.1
2018-10-09T06:41:48.926Z,1024.1
2018-10-09T06:46:48.268Z,1024.1
2018-10-09T06:51:48.667Z,1024.2
2018-10-09T06:56:48.252Z,1024.1
2018-10-09T07:01:48.631Z,1024.2
2018-10-09T07:06:49.090Z,1024.2
2018-10-09T07:11:48.359Z,1024.2
2018-10-09T07:16:48.760Z,1024.3
2018-10-09T07:21:49.100Z,1024.4
2018-10-09T07:26:48.701Z,1024.4
2018-10-09T07:31:48.957Z,1024.5
2018-10-09T07:36:48.433Z,1024.6
2018-10-09T07:41:48.596Z,1024.5
2018-10-09T07:46:48.954Z,1024.5
2018-10-09T07:51:48.411Z,1024.5
2018-10-09T07:56:48.985Z,1024.5
2018-10-09T08:01:48.312Z,1024.4
2018-10-09T08:06:48.808Z,1024.5
2018-10-09T08:11:49.013Z,1024.6
2018-10-09T08:16:48.357Z,1024.7
2018-10-09T08:21:48.780Z,1024.6
2018-10-09T08:26:48.326Z,1024.7
2018-10-09T08:31:48.666Z,1024.7
2018-10-09T08:36:49.077Z,1024.7
2018-10-09T08:41:48.312Z,1024.7
2018-10-09T08:46:48.606Z,1024.7
2018-10-09T08:51:49.411Z,1024.6
2018-10-09T08:56:48.624Z,1024.5
2018-10-09T09:01:48.964Z,1024.6
2018-10-09T09:06:48.469Z,1024.5
2018-10-09T09:11:48.676Z,1024.6
2018-10-09T09:16:48.974Z,1024.6
2018-10-09T09:21:48.427Z,1024.7
2018-10-09T09:26:49.645Z,1024.6
2018-10-09T09:31:48.349Z,1024.5
2018-10-09T09:36:48.737Z,1024.5
2018-10-09T09:41:49.048Z,1024.5
2018-10-09T09:46:48.341Z,1024.5
2018-10-09T09:51:48.731Z,1024.4
2018-10-09T09:56:48.346Z,1024.4
2018-10-09T10:01:48.652Z,1024.4
2018-10-09T10:06:48.103Z,1024.4
2018-10-09T10:11:48.304Z,1024.3
2018-10-09T10:16:48.631Z,1024.2
2018-10-09T10:21:49.090Z,1024.2
2018-10-09T10:26:48.662Z,1024.2
2018-10-09T10:31:48.999Z,1024.2
2018-10-09T10:36:49.363Z,1024.2
2018-10-09T10:41:48.630Z,1024.2
2018-10-09T10:46:48.932Z,1024.2
2018-10-09T10:51:48.419Z,1023.9
2018-10-09T10:56:48.060Z,1023.9
2018-10-09T11:01:49.056Z,1023.8
2018-10-09T11:06:48.786Z,1023.8
2018-10-09T11:11:48.057Z,1023.9
2018-10-09T11:16:48.362Z,1023.6
2018-10-09T11:21:48.751Z,1023.7
2018-10-09T11:26:48.364Z,1023.6
2018-10-09T11:31:48.745Z,1023.6
2018-10-09T11:36:48.196Z,1023.5
2018-10-09T11:41:48.391Z,1023.5
2018-10-09T11:46:48.729Z,1023.4
2018-10-09T11:51:48.145Z,1023.5
2018-10-09T11:56:48.716Z,1023.3
2018-10-09T12:01:49.036Z,1023.2
2018-10-09T12:06:48.550Z,1023.1
2018-10-09T12:11:48.766Z,1023.1
2018-10-09T12:16:48.096Z,1023
2018-10-09T12:21:48.531Z,1022.9
2018-10-09T12:26:48.070Z,1023
2018-10-09T12:31:48.369Z,1022.9
2018-10-09T12:36:48.824Z,1022.8
2018-10-09T12:41:48.015Z,1022.9
2018-10-09T12:46:48.381Z,1022.7
2018-10-09T12:51:48.821Z,1022.6
2018-10-09T12:56:48.364Z,1022.6
2018-10-09T13:01:48.663Z,1022.5
2018-10-09T13:06:48.134Z,1022.4
2018-10-09T13:11:48.352Z,1022.4
2018-10-09T13:16:48.671Z,1022.4
2018-10-09T13:21:52.614Z,1022.5
2018-10-09T13:26:48.714Z,1022.4
2018-10-09T13:31:48.988Z,1022.4
2018-10-09T13:36:48.510Z,1022.4
2018-10-09T13:41:48.681Z,1022.3
2018-10-09T13:46:49.062Z,1022.3
2018-10-09T13:51:48.445Z,1022.3
2018-10-09T13:56:48.022Z,1022.3
2018-10-09T14:01:48.385Z,1022.3
2018-10-09T14:06:48.831Z,1022.2
2018-10-09T14:11:48.465Z,1022.2
2018-10-09T14:16:48.420Z,1022.2
2018-10-09T14:21:48.808Z,1022.2
2018-10-09T14:26:48.382Z,1022.2
2018-10-09T14:31:48.660Z,1022.2
2018-10-09T14:36:48.095Z,1022.1
2018-10-09T14:41:48.325Z,1022.1
2018-10-09T14:46:48.656Z,1022.2
2018-10-09T14:51:49.143Z,1022.1
2018-10-09T14:56:48.659Z,1022.1
2018-10-09T15:01:48.941Z,1022.1
2018-10-09T15:06:48.436Z,1022.1
2018-10-09T15:11:48.637Z,1022.1
2018-10-09T15:16:49.706Z,1022.2
2018-10-09T15:21:48.634Z,1022.2
2018-10-09T15:26:49.088Z,1022.3
2018-10-09T15:31:48.325Z,1022.2
2018-10-09T15:36:48.738Z,1022.2
2018-10-09T15:41:48.988Z,1022.1
2018-10-09T15:46:48.341Z,1022.2
2018-10-09T15:51:48.697Z,1022.4
2018-10-09T15:56:48.277Z,1022.4
2018-10-09T16:01:48.635Z,1022.4
2018-10-09T16:06:48.504Z,1022.3
2018-10-09T16:11:48.337Z,1022.3
2018-10-09T16:16:48.657Z,1022.4
2018-10-09T16:21:48.092Z,1022.4
2018-10-09T16:26:48.666Z,1022.4
2018-10-09T16:31:48.978Z,1022.4
2018-10-09T16:36:48.478Z,1022.5
2018-10-09T16:41:48.688Z,1022.5
2018-10-09T16:46:48.969Z,1022.5
2018-10-09T16:51:48.407Z,1022.6
2018-10-09T16:56:48.025Z,1022.6
2018-10-09T17:01:48.375Z,1022.6
2018-10-09T17:06:49.662Z,1022.6
2018-10-09T17:11:48.026Z,1022.6
2018-10-09T17:16:48.392Z,1022.7
2018-10-09T17:21:48.762Z,1022.7
2018-10-09T17:26:49.501Z,1022.8
2018-10-09T17:31:53.730Z,1022.8
2018-10-09T17:36:48.061Z,1022.8
2018-10-09T17:41:48.328Z,1022.8
2018-10-09T17:46:49.470Z,1022.9
2018-10-09T17:51:49.051Z,1023
2018-10-09T17:56:48.694Z,1023.1
2018-10-09T18:01:48.950Z,1023
2018-10-09T18:06:48.491Z,1023
2018-10-09T18:11:48.637Z,1023
2018-10-09T18:16:48.930Z,1023
2018-10-09T18:21:48.437Z,1023
2018-10-09T18:26:48.065Z,1023.1
2018-10-09T18:31:48.476Z,1023.1
2018-10-09T18:36:48.736Z,1023.2
2018-10-09T18:41:50.595Z,1023.1
2018-10-09T18:46:48.329Z,1023.2
2018-10-09T18:51:48.691Z,1023.3
2018-10-09T18:56:48.287Z,1023.2
2018-10-09T19:01:48.675Z,1023.2
2018-10-09T19:06:48.126Z,1023.1
2018-10-09T19:11:48.308Z,1023.1
2018-10-09T19:16:48.695Z,1023.2
2018-10-09T19:21:48.715Z,1023.3
2018-10-09T19:26:48.745Z,1023.4
2018-10-09T19:31:48.959Z,1023.3
2018-10-09T19:36:48.478Z,1023.3
2018-10-09T19:41:48.706Z,1023.4
2018-10-09T19:46:48.970Z,1023.4
2018-10-09T19:51:48.456Z,1023.4
2018-10-09T19:56:48.984Z,1023.5
2018-10-09T20:01:48.408Z,1023.5
2018-10-09T20:06:48.775Z,1023.5
2018-10-09T20:11:47.956Z,1023.5
2018-10-09T20:16:48.377Z,1023.5
2018-10-09T20:21:48.721Z,1023.5
2018-10-09T20:26:48.351Z,1023.5
2018-10-09T20:31:48.677Z,1023.4
2018-10-09T20:36:49.040Z,1023.5
2018-10-09T20:41:48.776Z,1023.5
2018-10-09T20:46:48.563Z,1023.4
2018-10-09T20:51:49.011Z,1023.5
2018-10-09T20:56:48.662Z,1023.4
2018-10-09T21:01:48.952Z,1023.5
2018-10-09T21:06:48.458Z,1023.5
2018-10-09T21:11:48.702Z,1023.4
2018-10-09T21:16:49.025Z,1023.4
2018-10-09T21:21:48.437Z,1023.4
2018-10-09T21:26:48.123Z,1023.4
2018-10-09T21:31:48.466Z,1023.3
2018-10-09T21:36:49.092Z,1023.4
2018-10-09T21:41:48.032Z,1023.4
2018-10-09T21:46:48.367Z,1023.4
2018-10-09T21:51:48.787Z,1023.4
2018-10-09T21:56:48.374Z,1023.4
2018-10-09T22:01:48.693Z,1023.4
2018-10-09T22:06:48.171Z,1023.5
2018-10-09T22:11:48.400Z,1023.5
2018-10-09T22:16:48.690Z,1023.5
2018-10-09T22:21:48.162Z,1023.5
2018-10-09T22:26:48.768Z,1023.4
2018-10-09T22:31:48.153Z,1023.5
2018-10-09T22:36:48.528Z,1023.4
2018-10-09T22:41:48.724Z,1023.3
2018-10-09T22:46:48.115Z,1023.3
2018-10-09T22:51:48.509Z,1023.3
2018-10-09T22:56:48.158Z,1023.3
2018-10-09T23:01:48.441Z,1023.2
2018-10-09T23:06:48.946Z,1023.3
2018-10-09T23:11:48.152Z,1023.3
2018-10-09T23:16:48.452Z,1023.3
2018-10-09T23:21:48.859Z,1023.3
2018-10-09T23:26:48.471Z,1023.4
2018-10-09T23:31:48.820Z,1023.4
2018-10-09T23:36:48.232Z,1023.2
2018-10-09T23:41:48.399Z,1023.2
2018-10-09T23:46:48.741Z,1023.1
2018-10-09T23:51:48.231Z,1023.2
2018-10-09T23:56:48.789Z,1023.3
